Flight Track Log - Related Links

Times and Time Zones

All times are in EDT time to prevent confusion due to time zone crossing. See the SWA3321 flight status page for this flight to view local times or setup timezone preferences in your user account.

Time Position Orientation Groundspeed Altitude Reporting Facility
EDT Latitude Longitude Course Direction KTS MPH feet Rate Location/Type
Thu 02:22:15 PM 36.0661 -115.2514 262° West 232 267 6,100  Level Los Angeles Center
Thu 02:22:40 PM 36.0456 -115.2656 209° Southwest 251 289 7,200 3,517 Climbing Los Angeles Center
Thu 02:23:42 PM 35.9769 -115.2992 202° Southwest 261 300 11,200 3,387 Climbing Los Angeles Center
Thu 02:24:44 PM 35.9178 -115.3661 223° Southwest 284 327 14,200 3,048 Climbing Los Angeles Center
Thu 02:25:46 PM 35.8858 -115.4578 247° West 296 341 17,500 2,688 Climbing Los Angeles Center
Thu 02:26:49 PM 35.8894 -115.5994 272° West 352 405 19,800 2,976 Climbing Los Angeles Center
Thu 02:27:51 PM 35.8919 -115.7325 271° West 362 417 23,700 3,484 Climbing Los Angeles Center
Thu 02:28:53 PM 35.8947 -115.8500 272° West 352 405 27,000 2,710 Climbing Los Angeles Center
Thu 02:29:55 PM 35.8989 -115.9617 273° West 330 380 29,300 1,597 Climbing Los Angeles Center
Thu 02:30:57 PM 35.9689 -116.0536 313° West 377 434 30,300 1,548 Climbing Los Angeles Center
Thu 02:31:59 PM 36.0439 -116.1425 316° Northwest 381 438 32,500 1,790 Climbing Los Angeles Center
Thu 02:33:01 PM 36.1225 -116.2314 318° Northwest 380 437 34,000 720 Climbing Los Angeles Center
Thu 02:34:04 PM 36.2156 -116.3389 317° Northwest 382 440 34,000  Level Los Angeles Center
Thu 02:35:06 PM 36.2933 -116.4275 317° Northwest 382 440 34,000  Level Los Angeles Center
Thu 02:36:08 PM 36.3694 -116.5169 317° Northwest 380 437 34,000  Level Los Angeles Center
Thu 02:37:10 PM 36.4475 -116.6075 317° Northwest 382 440 34,000  Level Los Angeles Center
Thu 02:38:12 PM 36.5244 -116.6986 316° Northwest 383 441 34,000  Level Los Angeles Center
Thu 02:39:14 PM 36.6272 -116.7997 322° Northwest 389 448 34,000  Level Los Angeles Center
Thu 02:40:16 PM 36.7211 -116.8658 331° Northwest 390 449 34,000  Level Los Angeles Center
Thu 02:41:19 PM 36.8144 -116.9353 329° Northwest 390 449 34,000  Level Los Angeles Center
Thu 02:42:21 PM 36.9050 -117.0069 328° Northwest 387 445 34,000  Level Los Angeles Center
Thu 02:42:44 PM 36.9411 -117.0367 327° Northwest 386 444 34,000  Level Oakland Center
Thu 02:43:45 PM 37.0328 -117.1058 329° Northwest 385 443 34,000  Level Oakland Center
Thu 02:44:46 PM 37.1247 -117.1772 328° Northwest 387 445 34,000  Level Oakland Center
Thu 02:45:49 PM 37.2172 -117.2489 328° Northwest 389 448 34,000  Level Oakland Center
Thu 02:46:49 PM 37.2989 -117.3375 319° Northwest 392 451 34,000  Level Oakland Center
Thu 02:47:51 PM 37.3683 -117.4383 311° West 383 441 34,000 -537 Level Oakland Center
Thu 02:48:52 PM 37.4519 -117.5667 309° West 392 451 32,900 -1,463 Descending Oakland Center
Thu 02:49:54 PM 37.5247 -117.6761 310° West 402 463 31,000 -1,415 Descending Oakland Center
Thu 02:50:55 PM 37.5956 -117.7825 310° West 398 458 30,000 -492 Descending Oakland Center
Thu 02:51:56 PM 37.6661 -117.8881 310° West 393 452 30,000  Level Oakland Center
Thu 02:52:58 PM 37.7367 -117.9958 310° West 396 456 30,000  Level Oakland Center
Thu 02:53:59 PM 37.8061 -118.1025 310° West 394 453 30,000  Level Oakland Center
Thu 02:55:01 PM 37.8767 -118.2086 310° West 393 452 30,000  Level Oakland Center
Thu 02:56:02 PM 37.9478 -118.3164 310° West 397 457 30,000  Level Oakland Center
Thu 02:57:03 PM 38.0178 -118.4261 309° West 398 458 30,000  Level Oakland Center
Thu 02:58:04 PM 38.0892 -118.5350 310° West 401 461 30,000  Level Oakland Center
Thu 02:59:06 PM 38.1606 -118.6456 309° West 396 456 30,000  Level Oakland Center
Thu 03:00:07 PM 38.2300 -118.7539 309° West 395 455 30,000  Level Oakland Center
Thu 03:01:09 PM 38.3006 -118.8625 310° West 397 457 30,000  Level Oakland Center
Thu 03:02:10 PM 38.3839 -118.9947 309° West 397 457 30,000  Level Oakland Center
Thu 03:03:11 PM 38.4536 -119.1056 309° West 399 459 30,000  Level Oakland Center
Thu 03:04:13 PM 38.5244 -119.2169 309° West 402 463 30,000  Level Oakland Center
Thu 03:05:14 PM 38.5961 -119.3281 310° West 403 464 30,000  Level Oakland Center
Thu 03:06:15 PM 38.6639 -119.4383 308° West 398 458 30,000  Level Oakland Center
Thu 03:07:16 PM 38.7347 -119.5494 309° West 399 459 30,000 -146 Level Oakland Center
Thu 03:08:18 PM 38.8031 -119.6606 308° West 397 457 29,700 -677 Descending Oakland Center
Thu 03:09:20 PM 38.8719 -119.7694 309° West 393 452 28,600 -1,131 Descending Oakland Center
Thu 03:10:20 PM 38.9489 -119.8919 309° West 387 445 27,400 -1,377 Descending Oakland Center
Thu 03:11:22 PM 39.0061 -119.9836 309° West 384 442 25,800 -1,805 Descending Oakland Center
Thu 03:12:23 PM 39.0725 -120.0928 308° West 386 444 23,700 -1,721 Descending Oakland Center
Thu 03:13:24 PM 39.1456 -120.2103 309° West 377 434 22,300 -1,171 Descending Oakland Center
Thu 03:14:26 PM 39.1653 -120.3369 281° West 381 438 21,300 -1,024 Descending Oakland Center
Thu 03:15:27 PM 39.1294 -120.4669 250° West 385 443 20,200 -984 Descending Oakland Center
Thu 03:16:28 PM 39.0981 -120.5958 253° West 379 436 19,300 -976 Descending Oakland Center
Thu 03:17:30 PM 39.0650 -120.7250 252° West 382 440 18,200 -976 Descending Oakland Center
Thu 03:18:31 PM 39.0319 -120.8531 252° West 379 436 17,300 -1,279 Descending Oakland Center
Thu 03:19:32 PM 38.9922 -121.0033 251° West 373 429 15,600 -1,707 Descending Oakland Center
Thu 03:20:34 PM 38.9606 -121.1281 252° West 370 426 13,800 -1,850 Descending Oakland Center
Thu 03:21:32 PM 38.9333 -121.2500 254° West 361 415 11,900 -1,525 Descending Northern Cal TRACON
Thu 03:22:32 PM 38.9000 -121.3667 250° West 345 397 10,800 -1,091 Descending Northern Cal TRACON
Thu 03:23:33 PM 38.8833 -121.4833 260° West 315 362 9,700 -1,140 Descending Northern Cal TRACON
Thu 03:24:33 PM 38.8833 -121.5833 270° West 292 336 8,500 -1,323 Descending Northern Cal TRACON
Thu 03:25:40 PM 38.8736 -121.6797 263° West 288 331 6,900 -1,395 Descending Oakland Center
Thu 03:26:42 PM 38.8022 -121.7094 198° South 279 321 5,500 -1,415 Descending Oakland Center
Thu 03:27:43 PM 38.7103 -121.7097 180° South 278 320 4,000 -984 Descending Oakland Center
Thu 03:28:44 PM 38.6408 -121.6978 172° South 257 296 3,500 -537 Descending Oakland Center
Thu 03:29:46 PM 38.5844 -121.6781 165° South 239 275 2,900 -944 Descending Oakland Center
Thu 03:30:32 PM 38.5833 -121.6167 91° East 192 221 1,800 -1,000 Descending Northern Cal TRACON
Thu 03:31:34 PM 38.6333 -121.6000 15° North 145 167 1,100 -650 Descending Northern Cal TRACON
Thu 03:32:32 PM 38.6667 -121.6000 360° North 127 146 500 -508 Descending Northern Cal TRACON
Thu 03:33:32 PM 38.7000 -121.6000 360° North 121 139 100 -400 Descending Northern Cal TRACON

Login

Don't have an account? Register now (free) for customized features, flight alerts, and more!